createdAt,value
2018-10-21T04:01:39.391Z,5.40
2018-10-21T04:04:07.512Z,5.40
2018-10-21T04:06:35.550Z,5.40
2018-10-21T04:09:04.843Z,5.40
2018-10-21T04:11:32.918Z,5.40
2018-10-21T04:14:00.973Z,5.40
2018-10-21T04:16:29.078Z,5.40
2018-10-21T04:18:57.183Z,5.40
2018-10-21T04:21:25.244Z,5.40
2018-10-21T04:23:53.318Z,5.40
2018-10-21T04:26:21.527Z,5.40
2018-10-21T04:28:49.596Z,5.40
2018-10-21T04:31:17.689Z,5.40
2018-10-21T04:33:46.270Z,5.30
2018-10-21T04:36:17.242Z,5.30
2018-10-21T04:38:56.601Z,5.30
2018-10-21T04:41:24.709Z,5.30
2018-10-21T04:43:52.792Z,5.30
2018-10-21T04:46:20.919Z,5.30
2018-10-21T04:48:49.003Z,5.30
2018-10-21T04:51:18.097Z,5.30
2018-10-21T04:53:46.196Z,5.20
2018-10-21T04:56:14.310Z,5.20
2018-10-21T04:58:42.403Z,5.20
2018-10-21T05:01:10.497Z,5.20
2018-10-21T05:03:38.615Z,5.20
2018-10-21T05:06:06.712Z,5.20
2018-10-21T05:08:34.847Z,5.20
2018-10-21T05:11:02.942Z,5.20
2018-10-21T05:13:31.038Z,5.20
2018-10-21T05:15:59.241Z,5.20
2018-10-21T05:18:27.331Z,5.10
2018-10-21T05:20:55.418Z,5.10
2018-10-21T05:23:23.495Z,5.00
2018-10-21T05:25:51.620Z,5.00
2018-10-21T05:30:47.562Z,4.90
2018-10-21T05:33:16.122Z,4.90
2018-10-21T05:35:45.031Z,4.90
2018-10-21T05:38:13.155Z,5.00
2018-10-21T05:40:41.278Z,5.00
2018-10-21T05:43:09.299Z,5.10
2018-10-21T05:45:37.400Z,5.10
2018-10-21T05:48:05.476Z,5.10
2018-10-21T05:50:33.562Z,5.20
2018-10-21T05:53:01.658Z,5.20
2018-10-21T05:55:29.758Z,5.10
2018-10-21T05:57:57.991Z,5.20
2018-10-21T06:00:26.340Z,5.10
2018-10-21T06:02:54.471Z,5.10
2018-10-21T06:05:31.891Z,5.10
2018-10-21T06:07:59.986Z,5.10
2018-10-21T06:10:28.089Z,5.10
2018-10-21T06:12:56.186Z,5.10
2018-10-21T06:15:24.298Z,5.10
2018-10-21T06:17:52.376Z,5.10
2018-10-21T06:20:28.847Z,5.10
2018-10-21T06:22:56.933Z,5.10
2018-10-21T06:25:25.015Z,5.10
2018-10-21T06:27:53.247Z,5.10
2018-10-21T06:30:21.313Z,5.10
2018-10-21T06:32:49.420Z,5.10
2018-10-21T06:35:17.566Z,5.10
2018-10-21T06:37:45.991Z,5.00
2018-10-21T06:40:14.238Z,5.10
2018-10-21T06:42:42.664Z,5.10
2018-10-21T06:45:12.004Z,5.20
2018-10-21T06:47:40.230Z,5.20
2018-10-21T06:50:13.490Z,5.20
2018-10-21T06:52:41.585Z,5.30
2018-10-21T06:55:10.135Z,5.30
2018-10-21T06:57:38.261Z,5.30
2018-10-21T07:00:06.314Z,5.30
2018-10-21T07:02:34.419Z,5.40
2018-10-21T07:05:02.550Z,5.40
2018-10-21T07:07:30.561Z,5.50
2018-10-21T07:09:58.721Z,5.60
2018-10-21T07:12:26.742Z,5.60
2018-10-21T07:14:54.836Z,5.60
2018-10-21T07:17:22.980Z,5.70
2018-10-21T07:19:50.990Z,5.70
2018-10-21T07:22:19.114Z,5.80
2018-10-21T07:24:47.152Z,5.80
2018-10-21T07:27:15.303Z,5.90
2018-10-21T07:29:43.363Z,5.90
2018-10-21T07:32:11.465Z,5.90
2018-10-21T07:34:39.535Z,5.90
2018-10-21T07:37:07.598Z,6.00
2018-10-21T07:39:35.697Z,6.10
2018-10-21T07:42:03.753Z,6.20
2018-10-21T07:44:31.823Z,6.30
2018-10-21T07:46:59.959Z,6.30
2018-10-21T07:49:28.255Z,6.40
2018-10-21T07:51:56.357Z,6.50
2018-10-21T07:54:24.482Z,6.60
2018-10-21T07:56:52.570Z,6.70
2018-10-21T07:59:20.637Z,6.80
2018-10-21T08:01:48.749Z,6.90
2018-10-21T08:04:16.910Z,7.10
2018-10-21T08:06:56.293Z,7.30
2018-10-21T08:09:24.392Z,7.40
2018-10-21T08:11:52.495Z,7.60
2018-10-21T08:14:20.581Z,7.80
2018-10-21T08:16:48.698Z,8.00
2018-10-21T08:19:16.790Z,8.30
2018-10-21T08:21:44.850Z,8.50
2018-10-21T08:24:12.925Z,8.80
2018-10-21T08:26:41.057Z,9.00
2018-10-21T08:29:09.148Z,9.30
2018-10-21T08:31:37.219Z,9.50
2018-10-21T08:34:05.501Z,9.80
2018-10-21T08:36:33.521Z,10.00
2018-10-21T08:39:01.632Z,10.30
2018-10-21T08:41:29.723Z,10.50
2018-10-21T08:43:57.954Z,10.80
2018-10-21T08:46:26.108Z,10.90
2018-10-21T08:48:54.167Z,11.10
2018-10-21T08:51:22.237Z,11.30
2018-10-21T08:53:50.350Z,11.40
2018-10-21T08:56:18.461Z,11.60
2018-10-21T08:58:46.547Z,11.70
2018-10-21T09:01:14.660Z,11.80
2018-10-21T09:03:42.727Z,12.00
2018-10-21T09:06:10.800Z,12.10
2018-10-21T09:08:38.892Z,12.20
2018-10-21T09:11:07.067Z,12.30
2018-10-21T09:13:35.088Z,12.40
2018-10-21T09:16:03.178Z,12.50
2018-10-21T09:18:31.253Z,12.60
2018-10-21T09:20:59.362Z,12.70
2018-10-21T09:23:27.430Z,12.80
2018-10-21T09:25:55.507Z,12.90
2018-10-21T09:28:23.602Z,12.90
2018-10-21T09:30:51.702Z,13.00
2018-10-21T09:33:19.833Z,13.00
2018-10-21T09:35:47.882Z,13.10
2018-10-21T09:38:15.987Z,13.20
2018-10-21T09:40:44.088Z,13.20
2018-10-21T09:43:12.265Z,13.20
2018-10-21T09:45:40.254Z,13.20
2018-10-21T09:48:08.351Z,13.30
2018-10-21T09:50:36.490Z,13.20
2018-10-21T09:53:04.584Z,13.20
2018-10-21T09:55:32.694Z,13.30
2018-10-21T09:58:00.853Z,13.40
2018-10-21T10:00:34.371Z,13.50
2018-10-21T10:03:04.066Z,13.60
2018-10-21T10:05:32.227Z,13.60
2018-10-21T10:08:00.339Z,13.80
2018-10-21T10:10:29.127Z,13.80
2018-10-21T10:12:57.937Z,14.00
2018-10-21T10:15:26.407Z,14.10
2018-10-21T10:17:56.269Z,14.20
2018-10-21T10:20:24.410Z,14.30
2018-10-21T10:22:52.591Z,14.50
2018-10-21T10:25:20.746Z,14.60
2018-10-21T10:27:48.825Z,14.70
2018-10-21T10:30:16.959Z,14.80
2018-10-21T10:32:45.002Z,14.80
2018-10-21T10:35:13.978Z,14.80
2018-10-21T10:37:42.440Z,14.80
2018-10-21T10:40:11.805Z,14.90
2018-10-21T10:42:40.044Z,15.00
2018-10-21T10:45:08.324Z,15.10
2018-10-21T10:47:36.786Z,15.20
2018-10-21T10:50:05.934Z,15.30
2018-10-21T10:52:34.014Z,15.50
2018-10-21T10:55:02.116Z,15.70
2018-10-21T10:57:30.275Z,15.80
2018-10-21T10:59:58.787Z,16.00
2018-10-21T11:02:26.851Z,16.10
2018-10-21T11:04:54.946Z,16.20
2018-10-21T11:07:23.081Z,16.30
2018-10-21T11:09:51.262Z,16.40
2018-10-21T11:12:19.465Z,16.50
2018-10-21T11:14:47.662Z,16.50
2018-10-21T11:17:15.724Z,16.60
2018-10-21T11:19:43.877Z,16.60
2018-10-21T11:22:12.080Z,16.70
2018-10-21T11:24:44.965Z,16.90
2018-10-21T11:27:13.191Z,17.10
2018-10-21T11:29:41.284Z,17.30
2018-10-21T11:32:09.418Z,17.40
2018-10-21T11:40:23.770Z,17.30
2018-10-21T11:45:45.835Z,17.20
2018-10-21T11:48:13.812Z,17.20
2018-10-21T11:50:42.230Z,17.40
2018-10-21T11:53:10.720Z,17.60
2018-10-21T11:55:41.045Z,17.90
2018-10-21T11:58:11.919Z,18.00
2018-10-21T12:00:40.096Z,18.00
2018-10-21T12:03:09.080Z,18.00
2018-10-21T12:11:37.757Z,19.40
2018-10-21T12:14:06.320Z,20.00
2018-10-21T12:16:44.127Z,20.40
2018-10-21T12:30:23.028Z,22.00
2018-10-21T12:35:40.311Z,22.30
2018-10-21T12:38:08.417Z,22.10
2018-10-21T12:40:36.513Z,22.00
2018-10-21T12:43:04.689Z,21.90
2018-10-21T12:45:32.825Z,21.70
2018-10-21T12:48:00.857Z,21.40
2018-10-21T12:50:29.552Z,21.10
2018-10-21T12:52:57.709Z,20.70
2018-10-21T12:55:25.780Z,20.50
2018-10-21T12:57:53.939Z,20.30
2018-10-21T13:00:22.287Z,20.10
2018-10-21T13:02:50.489Z,20.00
2018-10-21T13:08:04.350Z,19.30
2018-10-21T13:10:32.502Z,19.10
2018-10-21T13:13:00.742Z,19.00
2018-10-21T13:15:28.738Z,18.80
2018-10-21T13:17:56.955Z,18.70
2018-10-21T13:20:25.129Z,18.60
2018-10-21T13:22:53.301Z,18.50
2018-10-21T13:25:21.573Z,18.40
2018-10-21T13:27:49.826Z,18.30
2018-10-21T13:30:17.995Z,18.30
2018-10-21T13:32:46.100Z,18.20
2018-10-21T13:35:14.252Z,18.00
2018-10-21T13:37:42.388Z,18.00
2018-10-21T13:40:10.606Z,18.00
2018-10-21T13:42:38.795Z,18.00
2018-10-21T13:45:07.101Z,17.70
2018-10-21T13:47:35.218Z,17.60
2018-10-21T13:50:03.350Z,17.60
2018-10-21T13:52:31.553Z,17.50
2018-10-21T13:54:59.726Z,17.60
2018-10-21T13:57:29.870Z,17.50
2018-10-21T14:00:24.011Z,17.50
2018-10-21T14:02:52.226Z,17.50
2018-10-21T14:05:20.337Z,17.50
2018-10-21T14:12:09.754Z,17.50
2018-10-21T14:14:37.987Z,17.50
2018-10-21T14:17:07.853Z,17.40
2018-10-21T14:19:36.665Z,17.40
2018-10-21T14:22:05.842Z,17.50
2018-10-21T14:24:34.915Z,17.40
2018-10-21T14:27:03.832Z,17.40
2018-10-21T14:29:32.740Z,17.30
2018-10-21T14:32:01.109Z,17.30
2018-10-21T14:34:29.950Z,17.30
2018-10-21T14:36:58.347Z,17.30
2018-10-21T14:39:26.438Z,17.40
2018-10-21T14:41:55.627Z,17.50
2018-10-21T14:44:23.680Z,17.60
2018-10-21T14:46:51.758Z,17.80
2018-10-21T14:49:19.814Z,18.00
2018-10-21T14:51:47.903Z,18.10
2018-10-21T14:54:16.048Z,18.20
2018-10-21T14:56:44.149Z,18.10
2018-10-21T14:59:12.259Z,18.10
2018-10-21T15:01:40.354Z,18.00
2018-10-21T15:04:09.358Z,17.90
2018-10-21T15:06:37.373Z,17.70
2018-10-21T15:09:09.296Z,17.60
2018-10-21T15:11:37.391Z,17.40
2018-10-21T15:14:05.750Z,17.20
2018-10-21T15:16:33.791Z,17.10
2018-10-21T15:19:01.990Z,17.00
2018-10-21T15:21:30.067Z,16.90
2018-10-21T15:23:58.167Z,16.80
2018-10-21T15:26:27.253Z,16.70
2018-10-21T15:29:01.464Z,16.60
2018-10-21T15:31:29.543Z,16.60
2018-10-21T15:33:57.624Z,16.50
2018-10-21T15:36:25.736Z,16.40
2018-10-21T15:38:53.846Z,16.30
2018-10-21T15:41:22.027Z,16.20
2018-10-21T15:43:50.125Z,16.10
2018-10-21T15:46:19.369Z,16.00
2018-10-21T15:48:47.501Z,15.90
2018-10-21T15:51:15.569Z,15.90
2018-10-21T15:53:43.781Z,15.80
2018-10-21T15:56:11.956Z,15.80
2018-10-21T15:58:40.002Z,15.70
2018-10-21T16:01:08.158Z,15.60
2018-10-21T16:03:36.262Z,15.60
2018-10-21T16:06:04.478Z,15.50
2018-10-21T16:08:32.598Z,15.50
2018-10-21T16:11:00.693Z,15.40
2018-10-21T16:13:28.786Z,15.20
2018-10-21T16:15:56.898Z,15.10
2018-10-21T16:18:31.968Z,14.90
2018-10-21T16:21:06.257Z,14.80
2018-10-21T16:23:34.344Z,14.60
2018-10-21T16:26:02.533Z,14.50
2018-10-21T16:28:30.530Z,14.30
2018-10-21T16:30:58.634Z,14.20
2018-10-21T16:33:26.766Z,14.10
2018-10-21T16:35:54.853Z,14.00
2018-10-21T16:38:22.995Z,13.80
2018-10-21T16:40:51.051Z,13.70
2018-10-21T16:43:19.233Z,13.60
2018-10-21T16:45:47.328Z,13.50
2018-10-21T16:48:15.426Z,13.30
2018-10-21T16:50:43.478Z,13.20
2018-10-21T16:53:11.561Z,13.10
2018-10-21T16:55:39.628Z,13.00
2018-10-21T16:58:07.685Z,12.80
2018-10-21T17:00:36.006Z,12.70
2018-10-21T17:03:03.938Z,12.60
2018-10-21T17:05:31.971Z,12.50
2018-10-21T17:08:00.034Z,12.40
2018-10-21T17:10:28.410Z,12.30
2018-10-21T17:12:56.247Z,12.20
2018-10-21T17:15:24.279Z,12.20
2018-10-21T17:17:52.387Z,12.10
2018-10-21T17:20:21.571Z,12.00
2018-10-21T17:22:49.778Z,11.90
2018-10-21T17:25:17.950Z,11.80
2018-10-21T17:27:45.964Z,11.80
2018-10-21T17:30:16.489Z,11.70
2018-10-21T17:32:46.038Z,11.60
2018-10-21T17:35:14.206Z,11.60
2018-10-21T17:37:42.292Z,11.50
2018-10-21T17:40:11.614Z,11.50
2018-10-21T17:42:39.913Z,11.30
2018-10-21T17:45:09.571Z,11.20
2018-10-21T17:47:37.686Z,11.20
2018-10-21T17:50:07.546Z,11.20
2018-10-21T17:52:35.768Z,11.10
2018-10-21T17:55:04.022Z,11.10
2018-10-21T17:57:32.111Z,11.00
2018-10-21T18:00:00.192Z,11.00
2018-10-21T18:02:28.296Z,10.90
2018-10-21T18:04:56.376Z,10.90
2018-10-21T18:07:24.458Z,10.80
2018-10-21T18:09:52.571Z,10.70
2018-10-21T18:12:20.690Z,10.70
2018-10-21T18:14:48.972Z,10.60
2018-10-21T18:17:17.177Z,10.60
2018-10-21T18:19:45.396Z,10.60
2018-10-21T18:22:13.554Z,10.50
2018-10-21T18:24:41.615Z,10.50
2018-10-21T18:27:09.749Z,10.50
2018-10-21T18:29:37.838Z,10.40
2018-10-21T18:32:06.410Z,10.40
2018-10-21T18:34:34.514Z,10.40
2018-10-21T18:37:02.622Z,10.40
2018-10-21T18:39:30.741Z,10.30
2018-10-21T18:41:58.816Z,10.30
2018-10-21T18:44:26.904Z,10.30
2018-10-21T18:46:55.735Z,10.20
2018-10-21T18:49:23.846Z,10.20
2018-10-21T18:51:51.944Z,10.10
2018-10-21T18:54:20.010Z,10.10
2018-10-21T18:56:48.120Z,10.00
2018-10-21T18:59:16.242Z,10.00
2018-10-21T19:01:44.370Z,10.00
2018-10-21T19:04:12.560Z,9.90
2018-10-21T19:06:40.558Z,9.90
2018-10-21T19:09:10.137Z,9.90
2018-10-21T19:11:38.310Z,9.80
2018-10-21T19:14:06.539Z,9.80
2018-10-21T19:16:34.634Z,9.70
2018-10-21T19:19:02.722Z,9.70
2018-10-21T19:21:30.768Z,9.60
2018-10-21T19:23:58.859Z,9.60
2018-10-21T19:26:26.909Z,9.60
2018-10-21T19:28:54.997Z,9.50
2018-10-21T19:31:23.082Z,9.50
2018-10-21T19:33:51.190Z,9.40
2018-10-21T19:36:19.233Z,9.40
2018-10-21T19:38:47.358Z,9.40
2018-10-21T19:41:15.418Z,9.30
2018-10-21T19:43:43.473Z,9.30
2018-10-21T19:46:11.610Z,9.30
2018-10-21T19:48:39.743Z,9.30
2018-10-21T19:51:07.822Z,9.20
2018-10-21T19:53:35.993Z,9.20
2018-10-21T19:56:04.060Z,9.20
2018-10-21T19:58:32.142Z,9.20
2018-10-21T20:01:00.269Z,9.10
2018-10-21T20:03:28.434Z,9.10
2018-10-21T20:05:56.563Z,9.00
2018-10-21T20:08:24.655Z,9.00
2018-10-21T20:10:52.729Z,8.90
2018-10-21T20:13:20.856Z,8.90
2018-10-21T20:15:48.948Z,8.90
2018-10-21T20:18:17.075Z,8.90
2018-10-21T20:20:45.079Z,8.80
2018-10-21T20:23:13.177Z,8.80
2018-10-21T20:25:41.218Z,8.80
2018-10-21T20:28:09.362Z,8.70
2018-10-21T20:30:37.406Z,8.70
2018-10-21T20:33:05.422Z,8.60
2018-10-21T20:35:33.446Z,8.60
2018-10-21T20:38:01.557Z,8.60
2018-10-21T20:40:29.630Z,8.60
2018-10-21T20:42:57.725Z,8.60
2018-10-21T20:45:25.811Z,8.60
2018-10-21T20:47:53.851Z,8.50
2018-10-21T20:50:21.905Z,8.50
2018-10-21T20:52:50.037Z,8.50
2018-10-21T20:55:18.083Z,8.50
2018-10-21T20:57:46.202Z,8.40
